createdAt,value
2022-12-23T00:01:36.044Z,9.10
2022-12-23T00:04:05.728Z,9.10
2022-12-23T00:06:33.120Z,9.10
2022-12-23T00:09:00.593Z,9.10
2022-12-23T00:11:28.680Z,9.00
2022-12-23T00:14:21.265Z,9.00
2022-12-23T00:16:50.547Z,9.00
2022-12-23T00:19:18.229Z,9.10
2022-12-23T00:21:45.974Z,9.10
2022-12-23T00:24:13.008Z,9.00
2022-12-23T00:26:40.041Z,9.00
2022-12-23T00:29:07.122Z,9.00
2022-12-23T00:31:34.202Z,9.00
2022-12-23T00:34:01.079Z,9.00
2022-12-23T00:36:29.759Z,9.10
2022-12-23T00:39:17.265Z,9.10
2022-12-23T00:42:03.196Z,9.10
2022-12-23T00:44:30.402Z,9.10
2022-12-23T00:46:57.368Z,9.20
2022-12-23T00:49:42.440Z,9.20
2022-12-23T00:52:12.591Z,9.20
2022-12-23T00:54:42.825Z,9.20
2022-12-23T00:57:10.031Z,9.20
2022-12-23T00:59:37.025Z,9.30
2022-12-23T01:02:42.304Z,9.30
2022-12-23T01:05:29.503Z,9.40
2022-12-23T01:07:56.467Z,9.40
2022-12-23T01:10:26.335Z,9.40
2022-12-23T01:12:53.254Z,9.40
2022-12-23T01:15:20.234Z,9.40
2022-12-23T01:17:47.221Z,9.30
2022-12-23T01:20:14.175Z,9.30
2022-12-23T01:22:41.129Z,9.30
2022-12-23T01:25:08.487Z,9.30
2022-12-23T01:27:35.533Z,9.20
2022-12-23T01:30:02.380Z,9.20
2022-12-23T01:32:29.372Z,9.20
2022-12-23T01:34:56.271Z,9.30
2022-12-23T01:37:23.226Z,9.20
2022-12-23T01:39:50.137Z,9.20
2022-12-23T01:42:38.091Z,9.20
2022-12-23T01:45:20.019Z,9.20
2022-12-23T01:47:54.606Z,9.20
2022-12-23T01:50:35.576Z,9.20
2022-12-23T01:53:17.608Z,9.30
2022-12-23T01:55:50.730Z,9.30
2022-12-23T01:58:34.440Z,9.40
2022-12-23T02:01:20.596Z,9.40
2022-12-23T02:03:49.269Z,9.40
2022-12-23T02:06:37.871Z,9.40
2022-12-23T02:09:18.147Z,9.40
2022-12-23T02:12:07.697Z,9.40
2022-12-23T02:15:11.744Z,9.30
2022-12-23T02:18:01.061Z,9.20
2022-12-23T02:20:52.311Z,9.10
2022-12-23T02:23:37.229Z,9.10
2022-12-23T02:26:22.751Z,9.20
2022-12-23T02:29:27.190Z,9.20
2022-12-23T02:32:03.370Z,9.20
2022-12-23T02:34:38.770Z,9.30
2022-12-23T02:37:27.415Z,9.30
2022-12-23T02:40:04.959Z,9.30
2022-12-23T02:43:11.800Z,9.30
2022-12-23T02:45:51.424Z,9.40
2022-12-23T02:48:45.966Z,9.40
2022-12-23T02:51:15.953Z,9.40
2022-12-23T02:53:49.251Z,9.50
2022-12-23T02:56:18.340Z,9.50
2022-12-23T02:59:01.878Z,9.50
2022-12-23T03:15:38.432Z,9.70
2022-12-23T03:18:47.479Z,9.70
2022-12-23T03:21:33.463Z,9.70
2022-12-23T03:24:30.257Z,9.60
2022-12-23T03:27:09.089Z,9.50
2022-12-23T03:29:50.694Z,9.40
2022-12-23T03:32:19.017Z,9.40
2022-12-23T03:34:49.571Z,9.40
2022-12-23T03:37:20.144Z,9.40
2022-12-23T03:39:54.390Z,9.40
2022-12-23T03:42:34.444Z,9.50
2022-12-23T03:47:59.664Z,9.50
2022-12-23T03:50:28.153Z,9.60
2022-12-23T03:53:15.284Z,9.60
2022-12-23T03:55:50.623Z,9.60
2022-12-23T03:58:47.568Z,9.50
2022-12-23T04:01:25.902Z,9.50
2022-12-23T04:04:06.414Z,9.50
2022-12-23T04:07:03.377Z,9.50
2022-12-23T04:09:30.279Z,9.50
2022-12-23T04:11:59.038Z,9.50
2022-12-23T04:14:26.107Z,9.40
2022-12-23T04:16:58.452Z,9.30
2022-12-23T04:19:26.156Z,9.20
2022-12-23T04:21:55.944Z,9.20
2022-12-23T04:24:22.920Z,9.20
2022-12-23T04:26:49.769Z,9.20
2022-12-23T04:29:16.704Z,9.20
2022-12-23T04:31:43.590Z,9.20
2022-12-23T04:34:10.574Z,9.30
2022-12-23T04:36:37.488Z,9.30
2022-12-23T04:39:04.518Z,9.20
2022-12-23T04:41:31.446Z,9.20
2022-12-23T04:43:58.271Z,9.20
2022-12-23T04:46:25.315Z,9.10
2022-12-23T04:48:52.222Z,9.10
2022-12-23T04:51:19.199Z,9.10
2022-12-23T04:53:46.061Z,9.00
2022-12-23T04:56:13.555Z,9.00
2022-12-23T04:58:40.791Z,8.90
2022-12-23T05:01:10.239Z,9.00
2022-12-23T05:03:38.318Z,9.00
2022-12-23T05:06:05.891Z,9.10
2022-12-23T05:08:33.523Z,9.10
2022-12-23T05:11:00.580Z,9.10
2022-12-23T05:13:27.557Z,9.00
2022-12-23T05:15:55.421Z,9.10
2022-12-23T05:18:22.937Z,9.10
2022-12-23T05:20:50.150Z,9.10
2022-12-23T05:23:17.339Z,9.10
2022-12-23T05:25:49.926Z,9.10
2022-12-23T05:28:16.759Z,9.00
2022-12-23T05:30:43.636Z,9.10
2022-12-23T05:33:10.681Z,9.10
2022-12-23T05:35:37.551Z,9.20
2022-12-23T05:38:04.431Z,9.30
2022-12-23T05:40:33.485Z,9.40
2022-12-23T05:43:01.058Z,9.40
2022-12-23T05:45:28.059Z,9.50
2022-12-23T05:47:54.900Z,9.60
2022-12-23T05:50:22.011Z,9.60
2022-12-23T05:52:49.213Z,9.60
2022-12-23T05:55:16.207Z,9.70
2022-12-23T05:57:43.113Z,9.70
2022-12-23T06:00:10.644Z,9.70
2022-12-23T06:02:40.880Z,9.70
2022-12-23T06:05:08.563Z,9.80
2022-12-23T06:07:35.671Z,9.80
2022-12-23T06:10:02.627Z,9.80
2022-12-23T06:12:29.539Z,9.80
2022-12-23T06:14:56.615Z,9.90
2022-12-23T06:17:23.696Z,9.80
2022-12-23T06:19:50.677Z,9.90
2022-12-23T06:22:18.013Z,9.90
2022-12-23T06:24:45.023Z,10.00
2022-12-23T06:27:12.034Z,10.00
2022-12-23T06:29:38.917Z,10.00
2022-12-23T06:32:06.000Z,10.00
2022-12-23T06:34:33.264Z,10.00
2022-12-23T06:37:00.246Z,10.00
2022-12-23T06:39:27.511Z,10.00
2022-12-23T06:41:54.359Z,10.00
2022-12-23T06:44:21.357Z,10.10
2022-12-23T06:46:48.274Z,10.10
2022-12-23T06:49:15.160Z,10.10
2022-12-23T06:51:44.305Z,10.10
2022-12-23T06:54:12.280Z,10.10
2022-12-23T06:56:39.944Z,10.20
2022-12-23T06:59:09.104Z,10.20
2022-12-23T07:01:36.478Z,10.20
2022-12-23T07:04:03.863Z,10.20
2022-12-23T07:06:30.891Z,10.20
2022-12-23T07:08:57.924Z,10.20
2022-12-23T07:11:24.922Z,10.20
2022-12-23T07:13:54.518Z,10.10
2022-12-23T07:21:28.950Z,10.10
2022-12-23T15:04:52.140Z,10.10
2022-12-23T15:08:01.030Z,10.10
2022-12-23T15:10:29.274Z,10.00
2022-12-23T15:13:06.436Z,10.00
2022-12-23T15:15:36.787Z,10.00
2022-12-23T15:18:13.277Z,10.00
2022-12-23T15:20:41.195Z,10.00
2022-12-23T15:23:15.709Z,10.00
2022-12-23T15:25:50.654Z,9.90
2022-12-23T15:28:37.674Z,9.90
2022-12-23T15:31:06.041Z,9.90
2022-12-23T15:34:02.097Z,9.80
2022-12-23T15:36:30.919Z,9.90
2022-12-23T15:39:03.224Z,9.80
2022-12-23T15:41:43.355Z,9.90
2022-12-23T15:44:23.120Z,9.90
2022-12-23T15:47:15.665Z,9.90
2022-12-23T15:50:00.454Z,9.90
2022-12-23T15:52:36.069Z,9.90
2022-12-23T15:55:33.049Z,10.00
2022-12-23T15:58:09.918Z,9.90
2022-12-23T16:00:52.240Z,9.90
2022-12-23T16:03:35.868Z,9.90
2022-12-23T16:06:46.681Z,9.90
2022-12-23T16:09:17.982Z,9.90
2022-12-23T16:12:16.229Z,9.80
2022-12-23T16:14:55.827Z,9.80
2022-12-23T16:17:31.457Z,9.70
2022-12-23T16:20:27.041Z,9.70
2022-12-23T16:23:00.897Z,9.70
2022-12-23T16:25:38.415Z,9.70
2022-12-23T16:28:22.524Z,9.60
2022-12-23T16:30:58.312Z,9.60
2022-12-23T16:33:44.715Z,9.60
2022-12-23T16:36:27.314Z,9.60
2022-12-23T16:39:09.594Z,9.60
2022-12-23T16:41:40.342Z,9.60
2022-12-23T16:44:07.946Z,9.60
2022-12-23T16:46:43.894Z,9.60
2022-12-23T16:49:16.591Z,9.60
2022-12-23T16:51:44.138Z,9.60
2022-12-23T16:54:16.573Z,9.60
2022-12-23T16:56:49.044Z,9.60
2022-12-23T16:59:16.530Z,9.60
2022-12-23T17:01:48.832Z,9.50
2022-12-23T17:04:18.926Z,9.50
2022-12-23T17:06:52.149Z,9.50
2022-12-23T17:09:22.891Z,9.50
2022-12-23T17:11:56.866Z,9.50
2022-12-23T17:14:27.705Z,9.50
2022-12-23T17:16:54.802Z,9.50
2022-12-23T17:19:28.896Z,9.50
2022-12-23T17:22:03.107Z,9.50
2022-12-23T17:24:30.237Z,9.50
2022-12-23T17:26:58.226Z,9.50
2022-12-23T17:29:51.043Z,9.50
2022-12-23T17:32:50.096Z,9.50
